Time;durP1;ratioP1;P1;durP2;ratioP2;P2;SDS_P1;SDS_P2;PMS_P1;PMS_P2;Temp;Humidity;BMP_temperature;BMP_pressure;BME280_temperature;BME280_humidity;BME280_pressure;Samples;Min_cycle;Max_cycle;Signal;HPM_P1;HPM_P2
2023/05/28 00:59:08;;;;;;;17.52;7.75;;;;;;;12.14;84.29;101835.31;4806054;29;20086;-91
2023/05/28 01:08:51;;;;;;;18.25;7.40;;;;;;;12.01;86.29;101838.78;4751671;30;20040;-91
2023/05/28 01:15:03;;;;;;;18.17;8.38;;;;;;;11.94;87.15;101841.47;4734139;30;20563;-91
2023/05/28 01:35:16;;;;;;;16.48;7.75;;;;;;;11.82;86.57;101851.19;4734929;29;20041;-90
2023/05/28 01:41:59;;;;;;;25.30;8.35;;;;;;;11.71;88.39;101842.53;4736140;29;20564;-90
2023/05/28 02:46:44;;;;;;;18.98;7.82;;;;;;;11.28;93.57;101828.19;4898990;29;20095;-91
2023/05/28 02:49:12;;;;;;;16.48;7.93;;;;;;;11.19;93.63;101822.06;4881622;29;20040;-91
2023/05/28 02:51:55;;;;;;;;;;;;;;;;;;;;;
2023/05/28 02:54:38;;;;;;;19.42;8.48;;;;;;;11.16;94.90;101822.47;4884632;29;20386;-91
2023/05/28 03:17:56;;;;;;;16.70;7.47;;;;;;;10.99;94.67;101833.59;4901589;29;20081;-90
2023/05/28 03:24:03;;;;;;;16.53;7.07;;;;;;;10.92;94.85;101826.41;4901496;29;20048;-91
2023/05/28 04:04:52;;;;;;;16.17;6.50;;;;;;;10.98;93.09;101842.75;4918845;28;20058;-90
2023/05/28 04:07:23;;;;;;;16.70;7.05;;;;;;;11.02;94.92;101849.50;4884117;29;20055;-91
2023/05/28 04:09:54;;;;;;;13.68;6.53;;;;;;;11.02;95.26;101845.94;4868859;29;20139;-90
2023/05/28 04:12:37;;;;;;;16.38;7.13;;;;;;;11.04;95.55;101850.16;4869681;29;20120;-91
2023/05/28 04:15:04;;;;;;;18.10;7.47;;;;;;;11.05;96.23;101843.66;4884611;29;20032;-91
2023/05/28 04:17:34;;;;;;;17.13;6.82;;;;;;;11.06;96.94;101844.53;4884758;29;20166;-91
2023/05/28 04:20:09;;;;;;;18.67;7.00;;;;;;;11.10;96.40;101853.13;4884018;29;20533;-91
2023/05/28 05:18:50;;;;;;;20.05;7.70;;;;;;;12.04;95.57;101874.56;4891818;29;20056;-84
2023/05/28 05:21:15;;;;;;;15.60;6.77;;;;;;;12.09;96.16;101871.25;4882537;29;20033;-82
2023/05/28 05:23:41;;;;;;;23.37;7.97;;;;;;;12.19;95.96;101874.44;4882097;29;20091;-82
2023/05/28 05:26:09;;;;;;;19.07;7.37;;;;;;;12.23;95.57;101877.63;4898946;29;20033;-82
2023/05/28 05:28:35;;;;;;;16.52;7.18;;;;;;;12.32;94.96;101881.84;4899721;29;20039;-82
2023/05/28 05:31:01;;;;;;;16.42;6.47;;;;;;;12.41;94.49;101874.34;4898627;29;20044;-82
2023/05/28 05:33:26;;;;;;;18.37;7.30;;;;;;;12.47;94.36;101876.25;4866531;29;20033;-82
2023/05/28 05:35:52;;;;;;;18.33;7.30;;;;;;;12.51;93.80;101877.53;4881804;29;20285;-82
2023/05/28 05:38:18;;;;;;;16.33;7.87;;;;;;;12.56;94.02;101879.66;4882133;29;20037;-82
2023/05/28 05:40:46;;;;;;;18.60;7.07;;;;;;;12.62;94.03;101881.56;4898640;29;20481;-84
2023/05/28 05:43:11;;;;;;;15.63;7.10;;;;;;;12.71;93.03;101883.06;4881953;29;20132;-85
2023/05/28 05:45:37;;;;;;;19.33;7.70;;;;;;;12.81;92.93;101891.69;4866364;29;20456;-83
2023/05/28 05:48:02;;;;;;;17.00;6.63;;;;;;;12.90;92.96;101894.22;4851860;29;20530;-84
2023/05/28 05:50:31;;;;;;;16.13;7.20;;;;;;;12.96;92.85;101901.56;4865945;29;20039;-85
2023/05/28 05:52:59;;;;;;;17.10;7.50;;;;;;;13.01;92.52;101895.50;4866778;29;20032;-84
2023/05/28 05:55:29;;;;;;;15.83;7.57;;;;;;;13.07;92.80;101897.41;4851696;29;20508;-85
2023/05/28 05:57:56;;;;;;;18.20;7.82;;;;;;;13.14;93.98;101899.09;4898894;29;20047;-85
2023/05/28 06:00:23;;;;;;;19.83;8.27;;;;;;;13.20;92.14;101896.56;4881792;29;20060;-85
2023/05/28 06:02:48;;;;;;;19.27;7.57;;;;;;;13.27;91.83;101901.00;4898676;29;20527;-84
2023/05/28 06:05:13;;;;;;;15.97;7.03;;;;;;;13.36;90.89;101898.97;4881426;29;20033;-85
2023/05/28 06:07:39;;;;;;;19.10;7.47;;;;;;;13.43;90.18;101891.59;4881608;29;20032;-85
2023/05/28 06:10:05;;;;;;;17.88;7.50;;;;;;;13.50;89.91;101895.16;4866790;29;20033;-84
2023/05/28 06:12:31;;;;;;;23.15;7.68;;;;;;;13.62;89.99;101900.84;4881791;29;20047;-85
2023/05/28 06:14:56;;;;;;;14.80;7.77;;;;;;;13.71;88.68;101898.72;4881741;29;20053;-84
2023/05/28 06:17:22;;;;;;;17.27;7.30;;;;;;;13.80;88.13;101902.09;4881717;29;20069;-85
2023/05/28 06:19:50;;;;;;;17.60;7.77;;;;;;;13.87;87.69;101883.81;4881623;29;20511;-84
2023/05/28 06:22:15;;;;;;;19.83;7.85;;;;;;;13.95;87.41;101885.47;4866277;29;20041;-84
2023/05/28 06:24:41;;;;;;;15.93;7.37;;;;;;;14.03;86.22;101885.28;4898680;29;20085;-84
2023/05/28 06:27:06;;;;;;;18.55;7.78;;;;;;;14.15;85.41;101891.75;4881144;29;20044;-84
2023/05/28 06:29:32;;;;;;;19.27;7.07;;;;;;;14.25;83.78;101887.75;4881439;29;20037;-85
2023/05/28 06:31:57;;;;;;;14.83;7.27;;;;;;;14.35;84.15;101890.84;4866065;29;20101;-84
2023/05/28 06:34:25;;;;;;;17.90;7.10;;;;;;;14.41;83.89;101883.69;4898399;29;20394;-84
2023/05/28 06:36:50;;;;;;;18.73;6.65;;;;;;;14.51;84.06;101882.19;4881442;29;20040;-85
2023/05/28 06:39:16;;;;;;;18.95;7.78;;;;;;;14.62;83.55;101882.59;4850690;29;20044;-84
2023/05/28 06:41:41;;;;;;;16.87;7.27;;;;;;;14.70;82.57;101882.31;4897927;29;20116;-85
2023/05/28 06:44:07;;;;;;;17.47;7.13;;;;;;;14.83;81.35;101889.63;4881248;29;20047;-84
2023/05/28 06:46:32;;;;;;;17.13;7.27;;;;;;;14.91;80.66;101884.75;4882695;29;20036;-84
2023/05/28 06:48:58;;;;;;;16.17;7.07;;;;;;;15.02;80.19;101885.09;4901471;29;20120;-84
2023/05/28 06:51:23;;;;;;;12.43;5.83;;;;;;;15.09;79.13;101883.16;4885293;29;20469;-84
2023/05/28 06:53:49;;;;;;;14.60;6.40;;;;;;;15.17;79.21;101882.06;4885619;29;20343;-85
2023/05/28 06:56:14;;;;;;;18.70;6.77;;;;;;;15.27;79.09;101882.41;4884745;29;20029;-84
2023/05/28 06:58:39;;;;;;;17.70;7.50;;;;;;;15.38;78.76;101875.38;4884956;29;20039;-86
2023/05/28 07:01:05;;;;;;;13.33;6.43;;;;;;;15.49;78.39;101880.13;4884939;29;20028;-85
2023/05/28 07:03:35;;;;;;;13.97;6.63;;;;;;;15.54;77.16;101885.75;4868925;29;20040;-86
2023/05/28 07:06:01;;;;;;;17.13;7.13;;;;;;;15.64;77.24;101888.00;4885198;29;20029;-85
2023/05/28 07:08:26;;;;;;;16.90;7.50;;;;;;;15.70;76.56;101889.00;4884881;29;20051;-86
2023/05/28 07:10:52;;;;;;;15.63;6.73;;;;;;;15.79;76.52;101887.69;4884717;29;20040;-85
2023/05/28 07:13:17;;;;;;;18.27;7.40;;;;;;;15.92;76.79;101893.03;4901446;29;20083;-86
2023/05/28 07:15:42;;;;;;;20.88;7.32;;;;;;;16.01;77.82;101896.31;4901774;29;20040;-85
2023/05/28 07:18:08;;;;;;;17.27;6.57;;;;;;;16.11;76.04;101887.59;4900928;29;20041;-86
2023/05/28 07:20:33;;;;;;;13.07;6.70;;;;;;;16.23;74.45;101887.66;4900853;29;20064;-85
2023/05/28 07:22:59;;;;;;;15.23;5.87;;;;;;;16.37;72.24;101894.66;4884366;29;20032;-86
2023/05/28 07:25:24;;;;;;;14.45;6.00;;;;;;;16.51;71.82;101894.50;4883945;29;20051;-86
2023/05/28 07:27:50;;;;;;;15.13;5.77;;;;;;;16.69;71.10;101897.22;4884160;29;20064;-86
2023/05/28 07:30:16;;;;;;;15.30;6.53;;;;;;;16.83;69.63;101889.66;4900783;29;20032;-86
2023/05/28 07:32:42;;;;;;;13.15;6.32;;;;;;;17.00;69.68;101895.34;4884138;29;20032;-86
2023/05/28 07:35:08;;;;;;;13.97;6.27;;;;;;;17.09;69.25;101896.69;4900990;29;20032;-86
2023/05/28 07:37:33;;;;;;;16.17;5.88;;;;;;;17.22;68.53;101897.56;4883798;29;20053;-84
2023/05/28 07:40:01;;;;;;;14.70;5.83;;;;;;;17.37;68.39;101892.47;4900877;29;20068;-85
2023/05/28 07:42:27;;;;;;;13.15;5.25;;;;;;;17.52;66.48;101892.84;4900375;29;20478;-87
2023/05/28 07:44:52;;;;;;;13.77;5.60;;;;;;;17.66;65.79;101898.94;4883850;29;20044;-85
2023/05/28 07:47:18;;;;;;;16.20;5.60;;;;;;;17.78;65.76;101900.88;4884494;29;20036;-86
2023/05/28 07:49:49;;;;;;;14.47;6.37;;;;;;;17.94;64.84;101897.44;4900871;29;20046;-85
2023/05/28 07:52:15;;;;;;;9.57;5.30;;;;;;;18.12;64.17;101892.88;4900496;29;20339;-85
2023/05/28 07:54:40;;;;;;;13.63;5.70;;;;;;;18.33;63.48;101894.97;4884034;29;20119;-86
2023/05/28 07:57:13;;;;;;;14.17;5.90;;;;;;;18.60;61.90;101883.44;4883179;29;20062;-85
2023/05/28 07:59:38;;;;;;;16.45;5.35;;;;;;;18.92;61.99;101905.00;4869330;29;20055;-85
2023/05/28 08:02:04;;;;;;;15.23;5.97;;;;;;;19.10;60.83;101895.69;4883535;29;20040;-85
2023/05/28 08:04:30;;;;;;;14.90;5.43;;;;;;;19.34;60.57;101896.41;4883155;29;20039;-85
2023/05/28 08:06:58;;;;;;;15.32;5.38;;;;;;;19.51;59.81;101901.91;4883613;29;20028;-85
2023/05/28 08:09:24;;;;;;;15.13;5.95;;;;;;;19.61;59.62;101891.06;4883288;29;20450;-85
2023/05/28 08:11:49;;;;;;;16.40;6.70;;;;;;;19.73;59.94;101895.66;4883197;29;20123;-85
2023/05/28 08:14:15;;;;;;;14.73;6.35;;;;;;;19.77;59.44;101896.81;4882905;29;20068;-85
2023/05/28 08:16:40;;;;;;;15.53;7.10;;;;;;;19.70;60.51;101894.22;4883540;29;20405;-86
2023/05/28 08:19:06;;;;;;;15.73;6.97;;;;;;;19.75;60.07;101898.97;4883036;29;20036;-85
2023/05/28 08:21:32;;;;;;;16.23;6.32;;;;;;;19.79;61.37;101900.19;4867506;29;20037;-85
2023/05/28 08:23:57;;;;;;;13.10;5.87;;;;;;;19.75;59.84;101893.47;4883221;29;20032;-85
2023/05/28 08:26:25;;;;;;;14.67;6.33;;;;;;;19.77;59.77;101897.66;4883170;29;20033;-85
2023/05/28 08:28:50;;;;;;;16.10;6.63;;;;;;;19.78;60.42;101893.00;4868678;29;20064;-85
2023/05/28 08:31:15;;;;;;;17.00;7.00;;;;;;;19.70;62.06;101891.47;4882689;29;20472;-85
2023/05/28 08:33:41;;;;;;;16.30;6.70;;;;;;;19.69;62.54;101892.56;4899528;29;20033;-86
2023/05/28 08:36:06;;;;;;;13.23;6.73;;;;;;;19.71;61.17;101892.31;4851844;29;20132;-85
2023/05/28 08:38:32;;;;;;;15.37;6.73;;;;;;;19.59;60.03;101885.00;4883003;29;20336;-86
2023/05/28 08:40:58;;;;;;;16.47;7.17;;;;;;;19.60;60.54;101892.13;4867478;29;20446;-86
2023/05/28 08:43:24;;;;;;;16.02;6.90;;;;;;;19.60;60.77;101883.88;4882592;29;20039;-86
2023/05/28 08:45:52;;;;;;;15.80;6.90;;;;;;;19.60;60.52;101874.81;4867280;29;20036;-85
2023/05/28 08:48:18;;;;;;;15.65;6.63;;;;;;;19.67;60.97;101883.72;4882377;29;20132;-85
2023/05/28 08:50:50;;;;;;;18.25;7.05;;;;;;;19.68;60.70;101884.53;4883318;29;20129;-85
2023/05/28 08:53:21;;;;;;;13.50;6.63;;;;;;;19.73;60.07;101884.63;4882678;29;20032;-85
2023/05/28 08:55:49;;;;;;;15.02;6.75;;;;;;;19.84;61.82;101880.97;4882634;29;20091;-85
2023/05/28 08:58:17;;;;;;;16.45;6.35;;;;;;;19.97;61.09;101874.28;4866832;29;20060;-86
2023/05/28 09:00:42;;;;;;;14.68;6.38;;;;;;;20.04;59.27;101874.94;4882423;29;20052;-86
2023/05/28 09:03:08;;;;;;;16.13;6.60;;;;;;;20.10;60.02;101876.66;4882683;29;20032;-85
2023/05/28 09:05:40;;;;;;;17.00;6.40;;;;;;;20.19;60.79;101867.97;4866599;29;20037;-86
2023/05/28 09:08:12;;;;;;;14.18;5.55;;;;;;;20.32;59.14;101868.41;4867126;29;20127;-86
2023/05/28 09:10:39;;;;;;;16.05;5.95;;;;;;;20.48;57.56;101863.91;4866577;29;20043;-86
2023/05/28 09:13:10;;;;;;;12.13;4.97;;;;;;;20.60;55.98;101862.97;4867107;29;20044;-87
2023/05/28 09:15:35;;;;;;;13.30;4.85;;;;;;;20.75;53.87;101865.91;4882268;29;20470;-86
2023/05/28 09:18:04;;;;;;;13.20;4.63;;;;;;;20.85;53.24;101859.66;4898792;29;20043;-86
2023/05/28 09:20:29;;;;;;;12.65;4.50;;;;;;;21.03;51.60;101852.94;4882153;29;20028;-87
2023/05/28 09:23:12;;;;;;;14.23;4.27;;;;;;;21.16;51.06;101866.31;4881914;29;20036;-86
2023/05/28 09:25:38;;;;;;;10.50;3.95;;;;;;;21.33;49.30;101857.06;4898702;29;20557;-86
2023/05/28 09:28:04;;;;;;;10.35;3.80;;;;;;;21.44;49.43;101861.56;4899300;29;20168;-86
2023/05/28 09:30:35;;;;;;;11.93;4.33;;;;;;;21.59;49.76;101854.53;4881794;29;20481;-87
2023/05/28 09:33:05;;;;;;;10.98;4.20;;;;;;;21.82;49.66;101861.56;4882376;29;20354;-87
2023/05/28 09:35:32;;;;;;;11.57;4.30;;;;;;;21.96;47.98;101851.72;4881814;29;20119;-86
2023/05/28 09:38:13;;;;;;;10.07;3.92;;;;;;;22.15;47.99;101859.56;4881934;29;20028;-86
2023/05/28 09:40:45;;;;;;;11.63;4.00;;;;;;;22.31;46.36;101860.44;4881687;29;20032;-87
2023/05/28 09:43:10;;;;;;;9.80;4.20;;;;;;;22.54;46.39;101862.78;4882259;29;20028;-87
2023/05/28 09:45:36;;;;;;;10.35;4.20;;;;;;;22.68;45.51;101863.09;4898402;29;20029;-87
2023/05/28 09:48:03;;;;;;;10.57;4.13;;;;;;;22.94;43.89;101857.59;4898560;29;20025;-87
2023/05/28 09:50:29;;;;;;;8.77;3.60;;;;;;;23.00;43.75;101855.69;4881958;29;20385;-87
2023/05/28 09:53:03;;;;;;;11.10;4.45;;;;;;;23.10;42.87;101856.56;4881631;29;20048;-87
2023/05/28 09:55:35;;;;;;;12.80;4.40;;;;;;;23.22;42.64;101853.53;4881946;29;20049;-87
2023/05/28 09:58:03;;;;;;;9.75;3.92;;;;;;;23.46;42.88;101859.31;4867043;29;20092;-87
2023/05/28 10:00:35;;;;;;;11.10;4.17;;;;;;;23.70;42.82;101852.38;4881521;29;20135;-87
2023/05/28 10:03:22;;;;;;;7.75;3.63;;;;;;;23.79;40.75;101842.38;4898644;29;20037;-87
2023/05/28 10:05:56;;;;;;;8.60;3.60;;;;;;;24.05;41.10;101851.47;4898829;29;20120;-87
2023/05/28 10:08:21;;;;;;;9.43;3.72;;;;;;;24.27;40.36;101845.56;4881750;29;20060;-86
2023/05/28 10:10:53;;;;;;;9.17;3.67;;;;;;;24.34;39.71;101851.63;4882216;29;20071;-87
2023/05/28 10:13:19;;;;;;;7.68;3.70;;;;;;;24.39;37.96;101847.16;4880998;29;20059;-87
2023/05/28 10:15:48;;;;;;;10.20;4.28;;;;;;;24.59;38.49;101844.31;4881680;29;20127;-87
2023/05/28 10:18:27;;;;;;;;;;;;;;;;;;;;;
2023/05/28 10:20:53;;;;;;;10.17;4.20;;;;;;;25.03;37.43;101854.56;4900182;29;20037;-87
2023/05/28 10:23:21;;;;;;;8.15;3.75;;;;;;;25.12;35.75;101852.00;4869664;29;20127;-87
2023/05/28 10:25:47;;;;;;;6.47;3.50;;;;;;;25.47;35.61;101857.59;4869760;29;20115;-87
2023/05/28 10:28:16;;;;;;;10.23;3.30;;;;;;;25.63;35.18;101849.91;4902973;29;20103;-86
2023/05/28 10:30:42;;;;;;;7.43;3.63;;;;;;;25.91;35.02;101856.56;4869375;29;20047;-85
2023/05/28 10:33:15;;;;;;;8.55;3.78;;;;;;;26.21;34.40;101857.34;4869781;29;20032;-85
2023/05/28 10:35:53;;;;;;;7.72;4.00;;;;;;;26.68;35.37;101852.00;4884924;29;20043;-85
2023/05/28 10:38:19;;;;;;;8.73;4.30;;;;;;;26.96;33.81;101850.22;4902066;29;20037;-85
2023/05/28 10:40:54;;;;;;;;;;;;;;;;;;;;;
2023/05/28 10:43:38;;;;;;;9.73;3.90;;;;;;;27.79;33.55;101853.22;4886817;29;20381;-85
2023/05/28 10:46:43;;;;;;;10.80;3.58;;;;;;;28.27;32.86;101853.97;4884955;29;20041;-85
2023/05/28 10:49:20;;;;;;;7.63;3.70;;;;;;;28.41;30.27;101856.75;4884937;29;20056;-84
2023/05/28 10:52:02;;;;;;;8.75;4.20;;;;;;;28.39;31.36;101857.06;4884703;29;20035;-84
2023/05/28 10:54:36;;;;;;;9.07;4.20;;;;;;;28.35;30.60;101853.25;4884744;29;20377;-83
2023/05/28 10:57:20;;;;;;;12.93;4.40;;;;;;;28.30;31.34;101851.41;4901590;29;20040;-83
2023/05/28 11:00:06;;;;;;;9.63;4.43;;;;;;;28.14;30.96;101856.47;4884581;29;20040;-84
2023/05/28 11:03:01;;;;;;;8.20;3.97;;;;;;;28.52;31.19;101856.22;4884910;29;20373;-84
2023/05/28 11:05:37;;;;;;;6.82;3.72;;;;;;;28.66;29.18;101858.19;4897337;29;20037;-84
2023/05/28 11:08:09;;;;;;;7.93;3.90;;;;;;;28.63;29.21;101850.44;4886094;29;20042;-84
2023/05/28 11:10:35;;;;;;;8.18;4.15;;;;;;;28.68;29.68;101844.72;4884237;29;20119;-85
2023/05/28 11:16:49;;;;;;;8.97;3.77;;;;;;;29.22;29.07;101848.44;4900172;29;20161;-85
2023/05/28 11:19:16;;;;;;;8.43;3.88;;;;;;;29.23;28.94;101852.06;4884692;29;20073;-85
2023/05/28 11:22:11;;;;;;;10.07;4.33;;;;;;;29.75;29.99;101851.53;4868574;29;20036;-85
2023/05/28 11:25:01;;;;;;;8.85;4.03;;;;;;;30.82;28.26;101857.09;4882690;29;20139;-85
2023/05/28 11:27:39;;;;;;;8.95;3.70;;;;;;;31.89;25.15;101855.41;4883890;29;20047;-85
2023/05/28 11:30:11;;;;;;;12.98;3.90;;;;;;;33.24;24.21;101848.19;4884896;29;20056;-86
2023/05/28 11:32:37;;;;;;;8.30;3.88;;;;;;;34.16;22.16;101855.31;4884480;29;20036;-85
2023/05/28 11:35:10;;;;;;;7.87;3.70;;;;;;;34.58;21.34;101851.41;4900700;29;20032;-87
2023/05/28 11:37:39;;;;;;;7.18;3.80;;;;;;;35.31;20.21;101846.69;4883921;29;20059;-86
2023/05/28 11:40:11;;;;;;;9.90;4.20;;;;;;;36.53;19.81;101846.03;4900356;29;20032;-85
2023/05/28 11:42:46;;;;;;;10.88;4.38;;;;;;;37.74;19.21;101831.81;4884618;29;20136;-86
2023/05/28 11:45:15;;;;;;;9.10;3.97;;;;;;;38.91;17.31;101833.84;4883667;29;20042;-86
2023/05/28 11:47:42;;;;;;;7.03;4.40;;;;;;;40.45;16.28;101835.56;4883188;29;20370;-85
2023/05/28 11:50:15;;;;;;;7.95;4.60;;;;;;;41.02;15.53;101826.44;4900355;29;20032;-86
2023/05/28 11:52:42;;;;;;;10.27;5.32;;;;;;;41.64;15.54;101830.16;4884399;29;20033;-86
2023/05/28 11:55:09;;;;;;;7.72;4.07;;;;;;;42.24;14.80;101826.41;4883685;29;20028;-86
2023/05/28 11:57:38;;;;;;;7.68;4.88;;;;;;;43.29;14.83;101818.13;4883233;29;20489;-86
2023/05/28 12:00:15;;;;;;;8.10;5.00;;;;;;;43.85;15.00;101820.13;4901014;29;20059;-86
2023/05/28 12:02:49;;;;;;;10.20;5.38;;;;;;;44.17;14.33;101812.41;4883632;29;20044;-86
2023/05/28 12:05:18;;;;;;;11.07;5.45;;;;;;;44.49;13.49;101806.28;4900163;29;20032;-86
2023/05/28 12:07:53;;;;;;;6.63;5.03;;;;;;;45.58;13.33;101808.31;4883405;29;20040;-86
2023/05/28 12:10:30;;;;;;;7.45;5.38;;;;;;;46.32;12.72;101811.00;4883640;29;20373;-86
2023/05/28 12:13:00;;;;;;;7.37;5.27;;;;;;;47.20;11.33;101807.78;4883027;29;20180;-86
2023/05/28 12:15:29;;;;;;;6.80;5.13;;;;;;;48.32;11.14;101801.88;4882818;29;20490;-87
2023/05/28 12:18:04;;;;;;;6.15;5.25;;;;;;;48.74;10.64;101810.44;4883023;29;20041;-87
2023/05/28 12:20:36;;;;;;;7.55;5.68;;;;;;;48.48;10.69;101802.59;4883122;29;20131;-87
2023/05/28 12:23:09;;;;;;;11.00;5.78;;;;;;;48.68;10.63;101804.47;4883295;29;20040;-87
2023/05/28 12:25:47;;;;;;;7.63;5.80;;;;;;;49.08;10.83;101798.25;4882986;29;20036;-87
2023/05/28 12:28:14;;;;;;;7.18;5.85;;;;;;;49.22;9.91;101796.97;4867351;29;20033;-87
2023/05/28 12:30:43;;;;;;;8.48;6.28;;;;;;;48.04;9.75;101787.84;4899476;29;20048;-87
2023/05/28 12:33:09;;;;;;;7.93;6.95;;;;;;;48.16;10.19;101786.31;4882954;29;20047;-86
2023/05/28 12:35:38;;;;;;;8.45;6.53;;;;;;;47.30;10.55;101782.91;4883033;29;20036;-87
2023/05/28 12:38:06;;;;;;;8.30;6.37;;;;;;;47.71;10.67;101788.00;4882609;29;20024;-87
2023/05/28 12:40:31;;;;;;;7.72;6.18;;;;;;;48.26;10.68;101782.28;4853074;29;20037;-87
2023/05/28 12:42:59;;;;;;;8.10;6.43;;;;;;;48.35;11.16;101780.81;4866937;29;20405;-87
2023/05/28 12:45:25;;;;;;;7.57;6.60;;;;;;;49.23;10.54;101781.28;4866880;29;20036;-87
2023/05/28 12:47:51;;;;;;;8.15;6.57;;;;;;;48.85;9.59;101779.25;4882941;29;20033;-86
2023/05/28 12:50:43;;;;;;;7.83;6.00;;;;;;;49.34;10.79;101781.69;4883170;29;20123;-87
2023/05/28 12:53:08;;;;;;;9.98;6.78;;;;;;;48.56;9.92;101780.19;4877411;29;20104;-88
2023/05/28 12:55:34;;;;;;;9.00;7.10;;;;;;;47.46;10.41;101764.88;4882096;29;20119;-87
2023/05/28 12:57:59;;;;;;;8.40;6.40;;;;;;;47.92;10.71;101768.50;4882553;29;20032;-88
2023/05/28 13:00:27;;;;;;;8.43;6.50;;;;;;;47.95;10.29;101771.28;4882741;29;20032;-88
2023/05/28 13:02:58;;;;;;;10.60;7.05;;;;;;;47.57;10.83;101762.50;4882434;29;20024;-88
2023/05/28 13:05:32;;;;;;;9.10;6.43;;;;;;;47.55;10.49;101762.94;4882457;29;20115;-87
2023/05/28 13:08:01;;;;;;;7.95;6.57;;;;;;;47.82;10.61;101763.88;4882436;29;20073;-88
2023/05/28 13:10:29;;;;;;;7.50;6.45;;;;;;;48.04;9.92;101766.94;4866643;29;20059;-86
2023/05/28 13:13:00;;;;;;;12.57;6.50;;;;;;;49.34;9.95;101770.19;4881843;29;20041;-87
2023/05/28 13:15:26;;;;;;;7.68;6.82;;;;;;;50.50;8.72;101763.03;4881750;29;20047;-88
2023/05/28 13:17:59;;;;;;;10.15;7.60;;;;;;;51.34;8.47;101750.44;4899075;29;20393;-87
2023/05/28 13:20:28;;;;;;;11.23;7.83;;;;;;;52.37;8.42;101751.09;4898624;29;20095;-89
2023/05/28 13:22:53;;;;;;;11.00;8.25;;;;;;;52.56;7.93;101749.69;4882415;29;20032;-89
2023/05/28 13:25:20;;;;;;;10.23;8.55;;;;;;;51.85;8.22;101737.38;4882209;29;20033;-89
2023/05/28 13:27:45;;;;;;;11.57;8.38;;;;;;;51.75;8.32;101741.56;4881985;29;20032;-89
2023/05/28 13:30:14;;;;;;;8.87;7.80;;;;;;;51.59;8.48;101740.63;4882015;29;20037;-89
2023/05/28 13:32:44;;;;;;;10.85;8.27;;;;;;;51.52;8.18;101743.84;4881582;29;20033;-89
2023/05/28 13:35:20;;;;;;;9.17;8.20;;;;;;;51.31;7.99;101750.56;4867162;29;20111;-89
2023/05/28 13:37:49;;;;;;;11.95;8.10;;;;;;;52.00;8.43;101748.28;4853204;29;20100;-89
2023/05/28 13:40:24;;;;;;;10.43;8.27;;;;;;;52.27;8.07;101751.09;4881578;29;20039;-88
2023/05/28 13:42:56;;;;;;;8.93;7.38;;;;;;;51.79;7.85;101745.09;4882158;29;20029;-91
2023/05/28 13:45:23;;;;;;;10.05;8.50;;;;;;;51.70;7.93;101743.03;4866967;29;20036;-89
2023/05/28 13:47:51;;;;;;;11.93;7.67;;;;;;;51.66;7.67;101751.06;4881660;29;20587;-89
2023/05/28 13:50:22;;;;;;;10.95;7.60;;;;;;;51.88;7.91;101742.19;4881525;29;20032;-88
2023/05/28 13:53:07;;;;;;;9.82;7.28;;;;;;;51.47;8.00;101738.69;4898817;29;20445;-88
2023/05/28 13:55:35;;;;;;;8.57;7.22;;;;;;;51.59;8.09;101731.13;4881232;29;20088;-87
2023/05/28 13:58:01;;;;;;;10.35;8.30;;;;;;;51.03;7.88;101734.00;4881734;29;20040;-88
2023/05/28 14:00:31;;;;;;;12.37;7.40;;;;;;;51.10;8.06;101729.19;4881214;29;20037;-88
2023/05/28 14:02:59;;;;;;;10.43;8.20;;;;;;;50.62;7.90;101724.59;4882130;29;20037;-88
2023/05/28 14:05:30;;;;;;;12.93;7.88;;;;;;;50.49;8.01;101721.78;4898415;29;20038;-91
2023/05/28 14:08:03;;;;;;;8.17;7.37;;;;;;;51.05;8.50;101721.97;4882174;29;20355;-88
2023/05/28 14:10:39;;;;;;;9.30;7.22;;;;;;;51.32;8.14;101731.97;4882121;29;20038;-88
2023/05/28 14:13:04;;;;;;;10.43;7.18;;;;;;;51.72;7.76;101728.91;4881629;29;20028;-87
2023/05/28 14:15:30;;;;;;;10.77;7.67;;;;;;;52.09;7.22;101725.13;4881190;29;20032;-88
2023/05/28 14:17:58;;;;;;;10.30;7.53;;;;;;;52.32;7.27;101726.47;4866101;29;20127;-87
2023/05/28 14:20:34;;;;;;;8.87;7.13;;;;;;;50.96;7.29;101727.75;4898562;29;20036;-87
2023/05/28 14:22:59;;;;;;;10.30;7.35;;;;;;;51.52;6.93;101723.59;4882275;29;20044;-87
2023/05/28 14:25:25;;;;;;;8.35;7.47;;;;;;;50.33;7.66;101728.63;4881127;29;20032;-87
2023/05/28 14:28:00;;;;;;;8.83;6.83;;;;;;;49.47;8.40;101718.25;4898109;29;20116;-87
2023/05/28 14:30:29;;;;;;;7.63;6.88;;;;;;;49.05;8.07;101715.66;4853776;29;20501;-87
2023/05/28 14:32:57;;;;;;;10.13;6.88;;;;;;;49.00;8.14;101719.91;4897920;29;20492;-88
2023/05/28 14:35:25;;;;;;;8.70;6.57;;;;;;;48.29;8.71;101725.91;4866258;29;20068;-87
2023/05/28 14:37:51;;;;;;;7.10;6.38;;;;;;;47.27;9.18;101715.66;4866259;29;20405;-87
2023/05/28 14:40:22;;;;;;;9.37;6.03;;;;;;;46.03;9.22;101719.81;4897973;29;20052;-87
2023/05/28 14:42:52;;;;;;;7.15;5.95;;;;;;;45.48;10.24;101722.13;4881271;29;20040;-87
2023/05/28 14:45:19;;;;;;;6.13;5.53;;;;;;;44.37;10.28;101727.59;4881165;29;20055;-87
2023/05/28 14:47:44;;;;;;;7.22;5.72;;;;;;;43.70;11.10;101725.09;4880982;29;20037;-87
2023/05/28 14:50:13;;;;;;;6.47;5.43;;;;;;;43.21;10.53;101721.53;4865833;29;20033;-88
2023/05/28 14:52:38;;;;;;;8.80;5.30;;;;;;;42.78;10.74;101727.56;4897727;29;20031;-87
2023/05/28 14:55:10;;;;;;;8.87;5.77;;;;;;;42.99;10.94;101721.66;4881171;29;20398;-87
2023/05/28 14:57:37;;;;;;;7.93;5.45;;;;;;;43.45;11.63;101723.34;4881085;29;20135;-87
2023/05/28 15:00:10;;;;;;;8.70;5.40;;;;;;;44.43;11.08;101714.44;4881525;29;20043;-87
2023/05/28 15:02:38;;;;;;;8.85;5.93;;;;;;;45.67;10.63;101716.88;4866164;29;20064;-87
2023/05/28 15:05:22;;;;;;;7.47;6.30;;;;;;;45.90;10.29;101715.22;4881459;29;20032;-88
2023/05/28 15:07:47;;;;;;;8.43;6.17;;;;;;;45.88;10.63;101707.06;4883380;29;20474;-87
2023/05/28 15:10:16;;;;;;;8.77;6.15;;;;;;;45.45;11.06;101722.22;4884617;29;20048;-86
2023/05/28 15:12:43;;;;;;;14.93;7.30;;;;;;;45.79;10.62;101701.88;4868952;29;20032;-87
2023/05/28 15:15:20;;;;;;;7.32;6.00;;;;;;;45.95;10.43;101711.81;4884404;29;20071;-87
2023/05/28 15:17:45;;;;;;;8.23;6.43;;;;;;;45.35;10.54;101718.28;4884577;29;20045;-87
2023/05/28 15:20:18;;;;;;;7.73;6.40;;;;;;;44.69;11.08;101711.22;4883804;29;20272;-87
2023/05/28 15:22:51;;;;;;;8.10;6.07;;;;;;;45.24;11.54;101709.91;4885072;29;20131;-87
2023/05/28 15:25:20;;;;;;;8.55;5.93;;;;;;;45.51;10.72;101709.00;4868675;29;20045;-87
2023/05/28 15:27:51;;;;;;;8.95;6.07;;;;;;;44.84;11.08;101704.00;4901394;29;20032;-87
2023/05/28 15:30:19;;;;;;;10.85;6.43;;;;;;;44.33;11.27;101703.97;4901959;29;20402;-87
2023/05/28 15:32:45;;;;;;;10.53;6.60;;;;;;;43.56;11.87;101702.44;4901345;29;20088;-87
2023/05/28 15:35:13;;;;;;;7.28;5.93;;;;;;;43.83;11.94;101699.69;4869023;29;20040;-87
2023/05/28 15:37:42;;;;;;;13.05;6.90;;;;;;;44.10;11.92;101704.66;4883740;29;20040;-87
2023/05/28 15:40:08;;;;;;;8.00;5.70;;;;;;;43.58;12.05;101697.91;4884075;29;20090;-87
2023/05/28 15:42:35;;;;;;;8.70;6.40;;;;;;;43.54;12.73;101699.19;4883962;29;20040;-88
2023/05/28 15:45:05;;;;;;;10.73;6.63;;;;;;;43.11;12.32;101695.53;4883910;29;20500;-87
2023/05/28 15:47:30;;;;;;;9.25;6.85;;;;;;;42.76;13.34;101691.69;4882752;29;20466;-87
2023/05/28 15:49:58;;;;;;;10.50;7.07;;;;;;;42.06;13.92;101685.97;4886011;29;20040;-86
2023/05/28 15:52:31;;;;;;;9.13;6.32;;;;;;;41.44;14.14;101693.06;4889578;29;20028;-86
2023/05/28 15:55:00;;;;;;;11.38;6.45;;;;;;;40.77;14.39;101682.09;4885175;29;20047;-86
2023/05/28 15:57:26;;;;;;;9.05;6.07;;;;;;;40.40;15.17;101685.25;4884881;29;20037;-87
2023/05/28 15:59:52;;;;;;;13.20;6.10;;;;;;;39.74;15.05;101680.50;4883730;29;20088;-87
2023/05/28 16:02:19;;;;;;;10.18;6.50;;;;;;;38.66;16.32;101694.63;4883604;29;20452;-86
2023/05/28 16:04:44;;;;;;;9.10;5.87;;;;;;;38.00;16.40;101686.53;4868976;29;20040;-87
2023/05/28 16:07:13;;;;;;;8.65;5.47;;;;;;;37.65;16.41;101686.84;4883620;29;20028;-86
2023/05/28 16:09:42;;;;;;;8.82;5.93;;;;;;;37.09;17.03;101689.22;4883566;29;20059;-87